sensor_id;sensor_type;location;lat;lon;timestamp;P1;durP1;ratioP1;P2;durP2;ratioP2
56081;SDS011;41957;52.060;5.138;2022-10-28T00:02:10;12.73;;;4.97;;
56081;SDS011;41957;52.060;5.138;2022-10-28T00:04:35;14.73;;;4.95;;
56081;SDS011;41957;52.060;5.138;2022-10-28T00:07:01;14.32;;;5.40;;
56081;SDS011;41957;52.060;5.138;2022-10-28T00:09:26;13.18;;;5.13;;
56081;SDS011;41957;52.060;5.138;2022-10-28T00:11:52;14.20;;;5.50;;
56081;SDS011;41957;52.060;5.138;2022-10-28T00:14:17;14.82;;;4.93;;
56081;SDS011;41957;52.060;5.138;2022-10-28T00:16:42;14.77;;;5.28;;
56081;SDS011;41957;52.060;5.138;2022-10-28T00:19:09;14.00;;;5.45;;
56081;SDS011;41957;52.060;5.138;2022-10-28T00:21:36;14.88;;;5.50;;
56081;SDS011;41957;52.060;5.138;2022-10-28T00:24:03;14.95;;;5.70;;
56081;SDS011;41957;52.060;5.138;2022-10-28T00:26:30;13.93;;;5.18;;
56081;SDS011;41957;52.060;5.138;2022-10-28T00:31:25;13.77;;;5.03;;
56081;SDS011;41957;52.060;5.138;2022-10-28T00:33:52;13.27;;;5.20;;
56081;SDS011;41957;52.060;5.138;2022-10-28T00:36:18;14.60;;;5.28;;
56081;SDS011;41957;52.060;5.138;2022-10-28T00:38:46;14.82;;;5.10;;
56081;SDS011;41957;52.060;5.138;2022-10-28T00:41:18;13.85;;;5.10;;
56081;SDS011;41957;52.060;5.138;2022-10-28T00:43:50;16.10;;;5.80;;
56081;SDS011;41957;52.060;5.138;2022-10-28T00:46:40;12.90;;;5.03;;
56081;SDS011;41957;52.060;5.138;2022-10-28T00:49:13;14.73;;;5.88;;
56081;SDS011;41957;52.060;5.138;2022-10-28T00:51:42;13.75;;;5.28;;
56081;SDS011;41957;52.060;5.138;2022-10-28T00:54:10;13.20;;;4.88;;
56081;SDS011;41957;52.060;5.138;2022-10-28T00:56:38;13.52;;;5.13;;
56081;SDS011;41957;52.060;5.138;2022-10-28T00:59:09;16.17;;;5.72;;
56081;SDS011;41957;52.060;5.138;2022-10-28T01:01:39;13.90;;;5.10;;
56081;SDS011;41957;52.060;5.138;2022-10-28T01:04:04;15.65;;;5.40;;
56081;SDS011;41957;52.060;5.138;2022-10-28T01:06:30;12.35;;;4.68;;
56081;SDS011;41957;52.060;5.138;2022-10-28T01:08:56;14.80;;;5.75;;
56081;SDS011;41957;52.060;5.138;2022-10-28T01:14:29;14.68;;;5.28;;
56081;SDS011;41957;52.060;5.138;2022-10-28T01:17:08;12.87;;;5.30;;
56081;SDS011;41957;52.060;5.138;2022-10-28T01:30:23;13.90;;;5.30;;
56081;SDS011;41957;52.060;5.138;2022-10-28T01:32:52;12.63;;;4.60;;
56081;SDS011;41957;52.060;5.138;2022-10-28T01:35:24;14.52;;;5.30;;
56081;SDS011;41957;52.060;5.138;2022-10-28T01:40:45;12.35;;;4.97;;
56081;SDS011;41957;52.060;5.138;2022-10-28T01:43:29;13.27;;;4.70;;
56081;SDS011;41957;52.060;5.138;2022-10-28T01:46:02;15.15;;;5.72;;
56081;SDS011;41957;52.060;5.138;2022-10-28T01:51:07;13.55;;;5.03;;
56081;SDS011;41957;52.060;5.138;2022-10-28T01:53:40;13.32;;;5.18;;
56081;SDS011;41957;52.060;5.138;2022-10-28T01:56:09;13.77;;;5.82;;
56081;SDS011;41957;52.060;5.138;2022-10-28T01:58:40;14.32;;;4.82;;
56081;SDS011;41957;52.060;5.138;2022-10-28T02:01:08;14.27;;;5.10;;
56081;SDS011;41957;52.060;5.138;2022-10-28T02:03:34;14.25;;;5.40;;
56081;SDS011;41957;52.060;5.138;2022-10-28T02:06:01;15.63;;;5.53;;
56081;SDS011;41957;52.060;5.138;2022-10-28T02:08:34;14.20;;;4.80;;
56081;SDS011;41957;52.060;5.138;2022-10-28T02:14:26;13.05;;;4.63;;
56081;SDS011;41957;52.060;5.138;2022-10-28T02:25:29;14.65;;;5.47;;
56081;SDS011;41957;52.060;5.138;2022-10-28T02:28:04;13.90;;;5.15;;
56081;SDS011;41957;52.060;5.138;2022-10-28T02:30:44;12.93;;;4.63;;
56081;SDS011;41957;52.060;5.138;2022-10-28T02:33:13;13.73;;;5.00;;
56081;SDS011;41957;52.060;5.138;2022-10-28T02:35:47;13.95;;;4.82;;
56081;SDS011;41957;52.060;5.138;2022-10-28T02:38:17;12.82;;;4.32;;
56081;SDS011;41957;52.060;5.138;2022-10-28T02:40:48;13.93;;;5.05;;
56081;SDS011;41957;52.060;5.138;2022-10-28T02:43:18;14.43;;;5.20;;
56081;SDS011;41957;52.060;5.138;2022-10-28T02:45:47;15.80;;;4.97;;
56081;SDS011;41957;52.060;5.138;2022-10-28T02:48:17;14.57;;;5.15;;
56081;SDS011;41957;52.060;5.138;2022-10-28T02:50:49;13.85;;;5.60;;
56081;SDS011;41957;52.060;5.138;2022-10-28T02:53:20;14.18;;;4.75;;
56081;SDS011;41957;52.060;5.138;2022-10-28T02:55:53;15.82;;;5.00;;
56081;SDS011;41957;52.060;5.138;2022-10-28T02:58:21;13.18;;;4.95;;
56081;SDS011;41957;52.060;5.138;2022-10-28T03:00:47;13.40;;;4.82;;
56081;SDS011;41957;52.060;5.138;2022-10-28T03:03:13;14.15;;;4.80;;
56081;SDS011;41957;52.060;5.138;2022-10-28T03:05:39;13.88;;;5.20;;
56081;SDS011;41957;52.060;5.138;2022-10-28T03:08:04;14.02;;;4.78;;
56081;SDS011;41957;52.060;5.138;2022-10-28T03:10:29;13.13;;;4.85;;
56081;SDS011;41957;52.060;5.138;2022-10-28T03:12:55;12.65;;;5.03;;
56081;SDS011;41957;52.060;5.138;2022-10-28T03:15:20;14.23;;;5.28;;
56081;SDS011;41957;52.060;5.138;2022-10-28T03:17:46;13.82;;;4.97;;
56081;SDS011;41957;52.060;5.138;2022-10-28T03:20:11;12.55;;;4.88;;
56081;SDS011;41957;52.060;5.138;2022-10-28T03:22:36;12.35;;;5.20;;
56081;SDS011;41957;52.060;5.138;2022-10-28T03:25:02;13.20;;;4.93;;
56081;SDS011;41957;52.060;5.138;2022-10-28T03:27:27;14.70;;;5.25;;
56081;SDS011;41957;52.060;5.138;2022-10-28T03:29:52;14.85;;;5.07;;
56081;SDS011;41957;52.060;5.138;2022-10-28T03:32:18;14.38;;;4.75;;
56081;SDS011;41957;52.060;5.138;2022-10-28T03:34:43;11.38;;;4.13;;
56081;SDS011;41957;52.060;5.138;2022-10-28T03:37:08;12.23;;;4.65;;
56081;SDS011;41957;52.060;5.138;2022-10-28T03:39:34;13.00;;;4.50;;
56081;SDS011;41957;52.060;5.138;2022-10-28T03:41:59;13.15;;;4.85;;
56081;SDS011;41957;52.060;5.138;2022-10-28T03:44:24;15.07;;;4.97;;
56081;SDS011;41957;52.060;5.138;2022-10-28T03:46:50;13.85;;;4.80;;
56081;SDS011;41957;52.060;5.138;2022-10-28T03:49:15;13.52;;;4.95;;
56081;SDS011;41957;52.060;5.138;2022-10-28T03:51:40;14.07;;;4.95;;
56081;SDS011;41957;52.060;5.138;2022-10-28T03:54:06;12.65;;;4.97;;
56081;SDS011;41957;52.060;5.138;2022-10-28T03:56:31;14.07;;;4.97;;
56081;SDS011;41957;52.060;5.138;2022-10-28T03:58:56;12.43;;;4.65;;
56081;SDS011;41957;52.060;5.138;2022-10-28T04:01:22;13.40;;;4.80;;
56081;SDS011;41957;52.060;5.138;2022-10-28T04:03:47;13.93;;;4.82;;
56081;SDS011;41957;52.060;5.138;2022-10-28T04:06:12;13.85;;;5.28;;
56081;SDS011;41957;52.060;5.138;2022-10-28T04:08:38;14.73;;;5.35;;
56081;SDS011;41957;52.060;5.138;2022-10-28T04:11:03;13.70;;;5.15;;
56081;SDS011;41957;52.060;5.138;2022-10-28T04:13:29;12.27;;;4.75;;
56081;SDS011;41957;52.060;5.138;2022-10-28T04:15:54;14.68;;;5.03;;
56081;SDS011;41957;52.060;5.138;2022-10-28T04:18:20;15.15;;;5.22;;
56081;SDS011;41957;52.060;5.138;2022-10-28T04:20:45;13.52;;;4.20;;
56081;SDS011;41957;52.060;5.138;2022-10-28T04:23:15;12.65;;;4.75;;
56081;SDS011;41957;52.060;5.138;2022-10-28T04:25:42;14.32;;;4.88;;
56081;SDS011;41957;52.060;5.138;2022-10-28T04:28:07;12.50;;;4.57;;
56081;SDS011;41957;52.060;5.138;2022-10-28T04:30:33;13.40;;;5.20;;
56081;SDS011;41957;52.060;5.138;2022-10-28T04:32:58;12.90;;;5.00;;
56081;SDS011;41957;52.060;5.138;2022-10-28T04:35:23;12.32;;;4.40;;
56081;SDS011;41957;52.060;5.138;2022-10-28T04:37:49;12.75;;;4.75;;
56081;SDS011;41957;52.060;5.138;2022-10-28T04:40:14;14.00;;;4.65;;
56081;SDS011;41957;52.060;5.138;2022-10-28T04:42:40;12.48;;;4.43;;
56081;SDS011;41957;52.060;5.138;2022-10-28T04:45:05;15.73;;;5.07;;
56081;SDS011;41957;52.060;5.138;2022-10-28T04:47:31;13.18;;;5.00;;
56081;SDS011;41957;52.060;5.138;2022-10-28T04:49:57;13.93;;;5.13;;
56081;SDS011;41957;52.060;5.138;2022-10-28T04:52:22;14.13;;;4.90;;
56081;SDS011;41957;52.060;5.138;2022-10-28T04:54:47;12.23;;;4.72;;
56081;SDS011;41957;52.060;5.138;2022-10-28T04:57:13;12.77;;;4.97;;
56081;SDS011;41957;52.060;5.138;2022-10-28T04:59:38;13.80;;;4.70;;
56081;SDS011;41957;52.060;5.138;2022-10-28T05:02:03;12.07;;;4.50;;
56081;SDS011;41957;52.060;5.138;2022-10-28T05:04:29;12.68;;;4.63;;
56081;SDS011;41957;52.060;5.138;2022-10-28T05:06:54;12.43;;;4.88;;
56081;SDS011;41957;52.060;5.138;2022-10-28T05:09:19;14.30;;;4.95;;
56081;SDS011;41957;52.060;5.138;2022-10-28T05:11:45;14.52;;;5.15;;
56081;SDS011;41957;52.060;5.138;2022-10-28T05:14:10;14.43;;;4.88;;
56081;SDS011;41957;52.060;5.138;2022-10-28T05:16:35;14.35;;;4.85;;
56081;SDS011;41957;52.060;5.138;2022-10-28T05:19:01;14.55;;;4.95;;
56081;SDS011;41957;52.060;5.138;2022-10-28T05:21:26;14.30;;;5.00;;
56081;SDS011;41957;52.060;5.138;2022-10-28T05:23:51;13.75;;;4.95;;
56081;SDS011;41957;52.060;5.138;2022-10-28T05:26:17;13.70;;;5.22;;
56081;SDS011;41957;52.060;5.138;2022-10-28T05:28:42;14.40;;;4.85;;
56081;SDS011;41957;52.060;5.138;2022-10-28T05:31:08;14.23;;;5.00;;
56081;SDS011;41957;52.060;5.138;2022-10-28T05:33:34;15.15;;;5.07;;
56081;SDS011;41957;52.060;5.138;2022-10-28T05:35:59;14.65;;;5.10;;
56081;SDS011;41957;52.060;5.138;2022-10-28T05:38:25;14.98;;;5.30;;
56081;SDS011;41957;52.060;5.138;2022-10-28T05:40:51;13.70;;;4.97;;
56081;SDS011;41957;52.060;5.138;2022-10-28T05:43:16;15.23;;;5.40;;
56081;SDS011;41957;52.060;5.138;2022-10-28T05:45:41;15.85;;;5.35;;
56081;SDS011;41957;52.060;5.138;2022-10-28T05:48:07;15.65;;;5.57;;
56081;SDS011;41957;52.060;5.138;2022-10-28T05:50:32;14.25;;;5.28;;
56081;SDS011;41957;52.060;5.138;2022-10-28T05:52:58;14.40;;;4.63;;
56081;SDS011;41957;52.060;5.138;2022-10-28T05:55:24;14.38;;;5.30;;
56081;SDS011;41957;52.060;5.138;2022-10-28T05:57:52;14.00;;;4.75;;
56081;SDS011;41957;52.060;5.138;2022-10-28T06:00:20;13.55;;;5.30;;
56081;SDS011;41957;52.060;5.138;2022-10-28T06:02:46;14.40;;;5.32;;
56081;SDS011;41957;52.060;5.138;2022-10-28T06:05:12;14.98;;;5.13;;
56081;SDS011;41957;52.060;5.138;2022-10-28T06:07:38;15.52;;;5.65;;
56081;SDS011;41957;52.060;5.138;2022-10-28T06:10:05;14.93;;;5.65;;
56081;SDS011;41957;52.060;5.138;2022-10-28T06:12:32;14.75;;;5.43;;
56081;SDS011;41957;52.060;5.138;2022-10-28T06:14:58;14.82;;;4.85;;
56081;SDS011;41957;52.060;5.138;2022-10-28T06:17:23;13.88;;;5.05;;
56081;SDS011;41957;52.060;5.138;2022-10-28T06:19:48;14.77;;;5.20;;
56081;SDS011;41957;52.060;5.138;2022-10-28T06:22:14;13.63;;;5.00;;
56081;SDS011;41957;52.060;5.138;2022-10-28T06:24:39;17.17;;;5.82;;
56081;SDS011;41957;52.060;5.138;2022-10-28T06:27:05;14.85;;;5.18;;
56081;SDS011;41957;52.060;5.138;2022-10-28T06:29:31;17.23;;;5.47;;
56081;SDS011;41957;52.060;5.138;2022-10-28T06:31:57;16.48;;;5.95;;
56081;SDS011;41957;52.060;5.138;2022-10-28T06:34:22;14.48;;;5.57;;
56081;SDS011;41957;52.060;5.138;2022-10-28T06:36:48;15.10;;;5.38;;
56081;SDS011;41957;52.060;5.138;2022-10-28T06:39:13;13.65;;;5.20;;
56081;SDS011;41957;52.060;5.138;2022-10-28T06:41:38;13.90;;;5.18;;
56081;SDS011;41957;52.060;5.138;2022-10-28T06:44:04;17.23;;;5.55;;
56081;SDS011;41957;52.060;5.138;2022-10-28T06:46:29;14.07;;;5.00;;
56081;SDS011;41957;52.060;5.138;2022-10-28T06:48:54;16.67;;;5.32;;
56081;SDS011;41957;52.060;5.138;2022-10-28T06:51:21;15.60;;;5.00;;
56081;SDS011;41957;52.060;5.138;2022-10-28T06:53:50;14.77;;;5.18;;
56081;SDS011;41957;52.060;5.138;2022-10-28T06:56:16;15.60;;;5.15;;
56081;SDS011;41957;52.060;5.138;2022-10-28T06:58:42;15.43;;;5.25;;
56081;SDS011;41957;52.060;5.138;2022-10-28T07:01:07;14.77;;;5.22;;
56081;SDS011;41957;52.060;5.138;2022-10-28T07:03:33;15.77;;;4.90;;
56081;SDS011;41957;52.060;5.138;2022-10-28T07:05:58;14.18;;;5.30;;
56081;SDS011;41957;52.060;5.138;2022-10-28T07:08:27;15.30;;;5.22;;
56081;SDS011;41957;52.060;5.138;2022-10-28T07:10:56;17.27;;;5.50;;
56081;SDS011;41957;52.060;5.138;2022-10-28T07:13:23;15.00;;;5.07;;
56081;SDS011;41957;52.060;5.138;2022-10-28T07:15:50;15.77;;;5.57;;
56081;SDS011;41957;52.060;5.138;2022-10-28T07:18:19;13.70;;;4.85;;
56081;SDS011;41957;52.060;5.138;2022-10-28T07:20:45;15.68;;;5.43;;
56081;SDS011;41957;52.060;5.138;2022-10-28T07:23:11;12.80;;;4.40;;
56081;SDS011;41957;52.060;5.138;2022-10-28T07:25:36;14.55;;;5.05;;
56081;SDS011;41957;52.060;5.138;2022-10-28T07:28:02;14.23;;;4.97;;
56081;SDS011;41957;52.060;5.138;2022-10-28T07:30:27;15.32;;;5.57;;
56081;SDS011;41957;52.060;5.138;2022-10-28T07:32:53;15.10;;;5.03;;
56081;SDS011;41957;52.060;5.138;2022-10-28T07:35:19;15.80;;;5.70;;
56081;SDS011;41957;52.060;5.138;2022-10-28T07:37:45;17.30;;;5.53;;
56081;SDS011;41957;52.060;5.138;2022-10-28T07:40:10;17.25;;;5.50;;
56081;SDS011;41957;52.060;5.138;2022-10-28T07:42:36;15.60;;;4.85;;
56081;SDS011;41957;52.060;5.138;2022-10-28T07:45:01;17.27;;;5.85;;
56081;SDS011;41957;52.060;5.138;2022-10-28T07:47:27;15.40;;;4.85;;
56081;SDS011;41957;52.060;5.138;2022-10-28T07:49:52;13.55;;;4.70;;
56081;SDS011;41957;52.060;5.138;2022-10-28T07:52:21;15.40;;;5.03;;
56081;SDS011;41957;52.060;5.138;2022-10-28T07:54:46;15.85;;;5.53;;
56081;SDS011;41957;52.060;5.138;2022-10-28T07:57:12;16.63;;;6.15;;
56081;SDS011;41957;52.060;5.138;2022-10-28T07:59:37;17.90;;;6.00;;
56081;SDS011;41957;52.060;5.138;2022-10-28T08:02:03;18.40;;;5.97;;
56081;SDS011;41957;52.060;5.138;2022-10-28T08:04:29;16.83;;;5.90;;
56081;SDS011;41957;52.060;5.138;2022-10-28T08:06:55;17.80;;;5.55;;
56081;SDS011;41957;52.060;5.138;2022-10-28T08:09:20;19.77;;;6.63;;
56081;SDS011;41957;52.060;5.138;2022-10-28T08:11:46;19.02;;;6.32;;
56081;SDS011;41957;52.060;5.138;2022-10-28T08:14:11;16.00;;;5.50;;
56081;SDS011;41957;52.060;5.138;2022-10-28T08:16:36;19.17;;;6.22;;
56081;SDS011;41957;52.060;5.138;2022-10-28T08:19:02;20.73;;;6.25;;
56081;SDS011;41957;52.060;5.138;2022-10-28T08:21:27;18.33;;;6.15;;
56081;SDS011;41957;52.060;5.138;2022-10-28T08:23:53;17.58;;;5.65;;
56081;SDS011;41957;52.060;5.138;2022-10-28T08:26:18;18.42;;;5.80;;
56081;SDS011;41957;52.060;5.138;2022-10-28T08:28:44;22.30;;;5.97;;
56081;SDS011;41957;52.060;5.138;2022-10-28T08:31:10;18.08;;;5.57;;
56081;SDS011;41957;52.060;5.138;2022-10-28T08:33:37;17.65;;;5.15;;
56081;SDS011;41957;52.060;5.138;2022-10-28T08:36:04;16.63;;;5.43;;
56081;SDS011;41957;52.060;5.138;2022-10-28T08:38:30;16.50;;;5.45;;
56081;SDS011;41957;52.060;5.138;2022-10-28T08:49:01;16.38;;;4.68;;
56081;SDS011;41957;52.060;5.138;2022-10-28T08:51:41;16.50;;;4.85;;
56081;SDS011;41957;52.060;5.138;2022-10-28T08:54:15;14.70;;;4.95;;
56081;SDS011;41957;52.060;5.138;2022-10-28T08:56:46;16.63;;;5.10;;
56081;SDS011;41957;52.060;5.138;2022-10-28T09:02:19;15.65;;;5.10;;
56081;SDS011;41957;52.060;5.138;2022-10-28T09:04:47;15.27;;;4.65;;
56081;SDS011;41957;52.060;5.138;2022-10-28T09:07:34;14.48;;;4.70;;
56081;SDS011;41957;52.060;5.138;2022-10-28T09:10:02;14.88;;;4.72;;
56081;SDS011;41957;52.060;5.138;2022-10-28T09:15:11;14.60;;;4.63;;
56081;SDS011;41957;52.060;5.138;2022-10-28T09:20:26;13.23;;;4.35;;
56081;SDS011;41957;52.060;5.138;2022-10-28T09:23:20;16.38;;;5.45;;
56081;SDS011;41957;52.060;5.138;2022-10-28T09:28:49;14.57;;;4.93;;
56081;SDS011;41957;52.060;5.138;2022-10-28T09:31:24;13.63;;;5.03;;
56081;SDS011;41957;52.060;5.138;2022-10-28T09:36:33;15.35;;;4.82;;
56081;SDS011;41957;52.060;5.138;2022-10-28T09:39:04;16.08;;;5.10;;
56081;SDS011;41957;52.060;5.138;2022-10-28T09:41:38;13.77;;;4.30;;
56081;SDS011;41957;52.060;5.138;2022-10-28T09:44:13;14.63;;;5.03;;
56081;SDS011;41957;52.060;5.138;2022-10-28T09:46:44;15.63;;;5.00;;
56081;SDS011;41957;52.060;5.138;2022-10-28T09:49:17;15.60;;;4.80;;
56081;SDS011;41957;52.060;5.138;2022-10-28T09:51:48;17.88;;;5.07;;
56081;SDS011;41957;52.060;5.138;2022-10-28T09:54:16;13.20;;;4.43;;
56081;SDS011;41957;52.060;5.138;2022-10-28T09:56:51;13.80;;;4.22;;
56081;SDS011;41957;52.060;5.138;2022-10-28T09:59:17;14.68;;;4.53;;
56081;SDS011;41957;52.060;5.138;2022-10-28T10:01:42;13.75;;;4.57;;
56081;SDS011;41957;52.060;5.138;2022-10-28T10:04:20;17.52;;;5.13;;
56081;SDS011;41957;52.060;5.138;2022-10-28T10:06:55;18.73;;;5.18;;
56081;SDS011;41957;52.060;5.138;2022-10-28T10:09:26;17.30;;;5.88;;
56081;SDS011;41957;52.060;5.138;2022-10-28T10:11:55;19.88;;;6.32;;
56081;SDS011;41957;52.060;5.138;2022-10-28T10:17:20;21.38;;;8.70;;
56081;SDS011;41957;52.060;5.138;2022-10-28T10:22:34;20.65;;;8.20;;
56081;SDS011;41957;52.060;5.138;2022-10-28T10:27:41;19.95;;;7.93;;
56081;SDS011;41957;52.060;5.138;2022-10-28T10:30:14;20.60;;;7.43;;
56081;SDS011;41957;52.060;5.138;2022-10-28T10:32:49;18.70;;;7.28;;
56081;SDS011;41957;52.060;5.138;2022-10-28T10:37:47;19.30;;;6.72;;
56081;SDS011;41957;52.060;5.138;2022-10-28T10:42:55;19.10;;;6.70;;
56081;SDS011;41957;52.060;5.138;2022-10-28T10:45:38;16.42;;;6.30;;
56081;SDS011;41957;52.060;5.138;2022-10-28T10:48:13;17.90;;;6.07;;
56081;SDS011;41957;52.060;5.138;2022-10-28T10:50:44;17.77;;;6.38;;
56081;SDS011;41957;52.060;5.138;2022-10-28T10:53:15;22.08;;;6.00;;
56081;SDS011;41957;52.060;5.138;2022-10-28T10:55:47;15.40;;;5.88;;
56081;SDS011;41957;52.060;5.138;2022-10-28T10:58:22;18.75;;;6.15;;
56081;SDS011;41957;52.060;5.138;2022-10-28T11:00:51;18.85;;;6.47;;
56081;SDS011;41957;52.060;5.138;2022-10-28T11:03:27;14.60;;;5.40;;
56081;SDS011;41957;52.060;5.138;2022-10-28T11:05:54;19.98;;;6.18;;
56081;SDS011;41957;52.060;5.138;2022-10-28T11:08:26;17.08;;;6.70;;
56081;SDS011;41957;52.060;5.138;2022-10-28T11:14:04;17.63;;;5.47;;
56081;SDS011;41957;52.060;5.138;2022-10-28T11:16:33;17.25;;;5.57;;
56081;SDS011;41957;52.060;5.138;2022-10-28T11:19:36;17.30;;;5.28;;
56081;SDS011;41957;52.060;5.138;2022-10-28T11:30:26;14.88;;;5.30;;
56081;SDS011;41957;52.060;5.138;2022-10-28T11:33:20;18.48;;;5.38;;
56081;SDS011;41957;52.060;5.138;2022-10-28T11:36:14;16.98;;;5.20;;
56081;SDS011;41957;52.060;5.138;2022-10-28T11:44:54;17.95;;;5.18;;
56081;SDS011;41957;52.060;5.138;2022-10-28T11:55:36;17.42;;;5.03;;
56081;SDS011;41957;52.060;5.138;2022-10-28T12:01:02;14.55;;;5.03;;
56081;SDS011;41957;52.060;5.138;2022-10-28T12:06:00;15.95;;;4.85;;
56081;SDS011;41957;52.060;5.138;2022-10-28T12:08:43;14.43;;;5.18;;
56081;SDS011;41957;52.060;5.138;2022-10-28T12:11:46;16.77;;;4.72;;
56081;SDS011;41957;52.060;5.138;2022-10-28T12:17:28;14.73;;;4.95;;
56081;SDS011;41957;52.060;5.138;2022-10-28T12:20:02;19.70;;;4.90;;
56081;SDS011;41957;52.060;5.138;2022-10-28T12:22:43;18.35;;;5.15;;
56081;SDS011;41957;52.060;5.138;2022-10-28T12:25:13;14.82;;;5.15;;
56081;SDS011;41957;52.060;5.138;2022-10-28T12:27:42;18.23;;;5.22;;
56081;SDS011;41957;52.060;5.138;2022-10-28T12:32:37;19.63;;;5.70;;
56081;SDS011;41957;52.060;5.138;2022-10-28T12:35:05;19.85;;;5.43;;
56081;SDS011;41957;52.060;5.138;2022-10-28T12:37:42;19.33;;;5.38;;
56081;SDS011;41957;52.060;5.138;2022-10-28T12:40:23;19.55;;;5.78;;
56081;SDS011;41957;52.060;5.138;2022-10-28T12:42:59;17.92;;;5.40;;
56081;SDS011;41957;52.060;5.138;2022-10-28T12:45:30;17.77;;;5.47;;
56081;SDS011;41957;52.060;5.138;2022-10-28T12:48:07;14.93;;;5.20;;
56081;SDS011;41957;52.060;5.138;2022-10-28T12:53:17;15.13;;;4.53;;
56081;SDS011;41957;52.060;5.138;2022-10-28T12:55:55;13.90;;;4.95;;
56081;SDS011;41957;52.060;5.138;2022-10-28T12:58:30;15.40;;;4.90;;
56081;SDS011;41957;52.060;5.138;2022-10-28T13:01:09;20.27;;;5.93;;
56081;SDS011;41957;52.060;5.138;2022-10-28T13:03:38;17.02;;;4.78;;
56081;SDS011;41957;52.060;5.138;2022-10-28T13:23:37;17.15;;;5.78;;
56081;SDS011;41957;52.060;5.138;2022-10-28T13:28:45;19.15;;;5.57;;
56081;SDS011;41957;52.060;5.138;2022-10-28T13:31:13;16.17;;;5.28;;
56081;SDS011;41957;52.060;5.138;2022-10-28T13:33:39;17.88;;;5.30;;
56081;SDS011;41957;52.060;5.138;2022-10-28T13:36:15;18.77;;;4.85;;
56081;SDS011;41957;52.060;5.138;2022-10-28T13:38:48;17.40;;;5.05;;
56081;SDS011;41957;52.060;5.138;2022-10-28T13:44:21;16.27;;;5.13;;
56081;SDS011;41957;52.060;5.138;2022-10-28T13:49:29;15.88;;;5.10;;
56081;SDS011;41957;52.060;5.138;2022-10-28T13:52:00;14.27;;;4.82;;
56081;SDS011;41957;52.060;5.138;2022-10-28T13:57:07;15.60;;;5.25;;
56081;SDS011;41957;52.060;5.138;2022-10-28T13:59:52;20.30;;;5.05;;
56081;SDS011;41957;52.060;5.138;2022-10-28T14:02:22;17.00;;;5.00;;
56081;SDS011;41957;52.060;5.138;2022-10-28T14:04:59;15.80;;;4.82;;
56081;SDS011;41957;52.060;5.138;2022-10-28T14:07:27;15.07;;;4.67;;
56081;SDS011;41957;52.060;5.138;2022-10-28T14:10:41;16.35;;;5.20;;
56081;SDS011;41957;52.060;5.138;2022-10-28T14:12:51;16.95;;;4.65;;
56081;SDS011;41957;52.060;5.138;2022-10-28T14:15:24;18.92;;;4.95;;
56081;SDS011;41957;52.060;5.138;2022-10-28T14:17:53;15.63;;;4.65;;
56081;SDS011;41957;52.060;5.138;2022-10-28T14:22:56;16.45;;;4.80;;
56081;SDS011;41957;52.060;5.138;2022-10-28T14:25:55;16.73;;;4.80;;
56081;SDS011;41957;52.060;5.138;2022-10-28T14:33:36;12.85;;;4.68;;
56081;SDS011;41957;52.060;5.138;2022-10-28T14:36:44;14.15;;;4.13;;
56081;SDS011;41957;52.060;5.138;2022-10-28T14:47:07;16.23;;;5.32;;
56081;SDS011;41957;52.060;5.138;2022-10-28T14:49:46;18.08;;;5.18;;
56081;SDS011;41957;52.060;5.138;2022-10-28T14:52:22;19.73;;;5.30;;
56081;SDS011;41957;52.060;5.138;2022-10-28T14:54:49;20.25;;;6.03;;
56081;SDS011;41957;52.060;5.138;2022-10-28T14:57:19;18.55;;;5.47;;
56081;SDS011;41957;52.060;5.138;2022-10-28T14:59:52;20.75;;;5.50;;
56081;SDS011;41957;52.060;5.138;2022-10-28T15:02:23;17.58;;;5.25;;
56081;SDS011;41957;52.060;5.138;2022-10-28T15:07:38;17.35;;;5.18;;
56081;SDS011;41957;52.060;5.138;2022-10-28T15:12:54;16.20;;;4.22;;
56081;SDS011;41957;52.060;5.138;2022-10-28T15:15:25;15.70;;;4.78;;
56081;SDS011;41957;52.060;5.138;2022-10-28T15:17:55;19.33;;;4.97;;
56081;SDS011;41957;52.060;5.138;2022-10-28T15:20:22;16.58;;;4.93;;
56081;SDS011;41957;52.060;5.138;2022-10-28T15:25:44;14.60;;;4.93;;
56081;SDS011;41957;52.060;5.138;2022-10-28T15:28:10;20.08;;;4.68;;
56081;SDS011;41957;52.060;5.138;2022-10-28T15:30:37;20.10;;;4.90;;
56081;SDS011;41957;52.060;5.138;2022-10-28T15:33:27;18.42;;;4.70;;
56081;SDS011;41957;52.060;5.138;2022-10-28T15:36:05;19.10;;;4.85;;
56081;SDS011;41957;52.060;5.138;2022-10-28T15:38:37;18.25;;;5.03;;
56081;SDS011;41957;52.060;5.138;2022-10-28T15:43:54;21.02;;;5.22;;
56081;SDS011;41957;52.060;5.138;2022-10-28T15:46:22;17.25;;;4.50;;
56081;SDS011;41957;52.060;5.138;2022-10-28T15:48:56;15.60;;;4.40;;
56081;SDS011;41957;52.060;5.138;2022-10-28T15:51:23;17.70;;;4.10;;
56081;SDS011;41957;52.060;5.138;2022-10-28T15:54:10;14.80;;;4.35;;
56081;SDS011;41957;52.060;5.138;2022-10-28T15:56:54;16.77;;;5.47;;
56081;SDS011;41957;52.060;5.138;2022-10-28T15:59:22;18.17;;;4.57;;
56081;SDS011;41957;52.060;5.138;2022-10-28T16:01:49;15.32;;;4.35;;
56081;SDS011;41957;52.060;5.138;2022-10-28T16:06:46;14.60;;;4.25;;
56081;SDS011;41957;52.060;5.138;2022-10-28T16:09:21;15.77;;;4.35;;
56081;SDS011;41957;52.060;5.138;2022-10-28T16:11:59;16.50;;;4.65;;
56081;SDS011;41957;52.060;5.138;2022-10-28T16:14:32;16.42;;;4.28;;
56081;SDS011;41957;52.060;5.138;2022-10-28T16:17:06;17.27;;;4.47;;
56081;SDS011;41957;52.060;5.138;2022-10-28T16:19:36;18.92;;;4.28;;
56081;SDS011;41957;52.060;5.138;2022-10-28T16:22:12;14.40;;;3.95;;
56081;SDS011;41957;52.060;5.138;2022-10-28T16:24:38;15.25;;;4.45;;
56081;SDS011;41957;52.060;5.138;2022-10-28T16:27:10;15.43;;;4.55;;
56081;SDS011;41957;52.060;5.138;2022-10-28T16:29:39;17.42;;;4.60;;
56081;SDS011;41957;52.060;5.138;2022-10-28T16:32:05;13.07;;;3.92;;
56081;SDS011;41957;52.060;5.138;2022-10-28T16:34:32;15.15;;;3.97;;
56081;SDS011;41957;52.060;5.138;2022-10-28T16:36:57;16.20;;;4.20;;
56081;SDS011;41957;52.060;5.138;2022-10-28T16:39:22;13.90;;;3.78;;
56081;SDS011;41957;52.060;5.138;2022-10-28T16:41:48;12.32;;;3.72;;
56081;SDS011;41957;52.060;5.138;2022-10-28T16:44:15;12.48;;;3.75;;
56081;SDS011;41957;52.060;5.138;2022-10-28T16:46:42;16.67;;;4.28;;
56081;SDS011;41957;52.060;5.138;2022-10-28T16:49:07;13.18;;;3.72;;
56081;SDS011;41957;52.060;5.138;2022-10-28T16:51:32;15.25;;;4.30;;
56081;SDS011;41957;52.060;5.138;2022-10-28T16:53:58;12.93;;;3.65;;
56081;SDS011;41957;52.060;5.138;2022-10-28T16:56:24;17.58;;;4.25;;
56081;SDS011;41957;52.060;5.138;2022-10-28T16:58:50;13.82;;;4.07;;
56081;SDS011;41957;52.060;5.138;2022-10-28T17:01:16;14.52;;;3.85;;
56081;SDS011;41957;52.060;5.138;2022-10-28T17:03:44;14.10;;;3.83;;
56081;SDS011;41957;52.060;5.138;2022-10-28T17:06:10;12.57;;;3.70;;
56081;SDS011;41957;52.060;5.138;2022-10-28T17:08:35;14.32;;;4.05;;
56081;SDS011;41957;52.060;5.138;2022-10-28T17:11:01;11.88;;;3.67;;
56081;SDS011;41957;52.060;5.138;2022-10-28T17:13:27;13.95;;;3.80;;
56081;SDS011;41957;52.060;5.138;2022-10-28T17:15:52;14.65;;;3.70;;
56081;SDS011;41957;52.060;5.138;2022-10-28T17:18:18;12.75;;;4.25;;
56081;SDS011;41957;52.060;5.138;2022-10-28T17:20:44;15.18;;;3.95;;
56081;SDS011;41957;52.060;5.138;2022-10-28T17:23:10;14.10;;;4.07;;
56081;SDS011;41957;52.060;5.138;2022-10-28T17:25:35;16.30;;;3.70;;
56081;SDS011;41957;52.060;5.138;2022-10-28T17:28:01;13.30;;;3.70;;
56081;SDS011;41957;52.060;5.138;2022-10-28T17:30:26;14.20;;;3.30;;
56081;SDS011;41957;52.060;5.138;2022-10-28T17:32:52;14.32;;;3.80;;